Amor, Minnesota
Current Conditions -  °F | °C
As of 8:14 AM on Saturday 25 Oct 2014 (Local Time) from KFFM Reporting Station
Clear Clear  
Wind Chill: 33°   Ceiling: Unl
Heat Index: 37°   Visibility: 10mi
Dew Point: 28°   Wind: 6mph
Humidity: 70%   Direction: 280°W
Pressure: 30.09"   Gusts: NA
Location:  46.3166°N, 95.7183°W
Report Text: KFFM 251314Z AUTO 28005KT 10SM CLR 03/M02 A3009 RMK AO2
Loading
Personal Weather Stations






























Interactive Weather Map
Tropical Storm Tracking
New forecast layout! Learn more

10-Day Weather Forecast

Advertisements
Track Severe Weather on mobile